createdAt,value
2017-07-27T00:00:38.631Z,10.73
2017-07-27T00:03:06.035Z,10.30
2017-07-27T00:05:33.426Z,10.70
2017-07-27T00:08:00.836Z,10.50
2017-07-27T00:10:28.238Z,10.17
2017-07-27T00:12:55.639Z,10.00
2017-07-27T00:15:23.035Z,10.73
2017-07-27T00:17:50.455Z,10.77
2017-07-27T00:20:17.851Z,11.57
2017-07-27T00:22:45.255Z,10.37
2017-07-27T00:25:12.654Z,11.10
2017-07-27T00:27:40.061Z,10.07
2017-07-27T00:30:07.466Z,11.87
2017-07-27T00:32:34.862Z,11.53
2017-07-27T00:35:02.254Z,10.50
2017-07-27T00:37:29.663Z,10.50
2017-07-27T00:39:57.055Z,12.93
2017-07-27T00:42:24.471Z,11.83
2017-07-27T00:44:51.861Z,12.00
2017-07-27T00:47:19.256Z,10.90
2017-07-27T00:49:46.664Z,11.03
2017-07-27T00:52:14.053Z,9.33
2017-07-27T00:54:41.459Z,10.10
2017-07-27T00:57:08.855Z,11.60
2017-07-27T00:59:36.255Z,9.80
2017-07-27T01:02:03.651Z,10.80
2017-07-27T01:04:31.054Z,10.30
2017-07-27T01:06:58.450Z,10.17
2017-07-27T01:09:25.850Z,10.57
2017-07-27T01:11:53.250Z,11.73
2017-07-27T01:14:20.654Z,10.47
2017-07-27T01:16:48.618Z,11.30
2017-07-27T01:19:16.015Z,11.23
2017-07-27T01:21:43.415Z,11.10
2017-07-27T01:24:10.818Z,11.70
2017-07-27T01:26:38.209Z,10.40
2017-07-27T01:29:05.613Z,11.97
2017-07-27T01:31:33.334Z,11.00
2017-07-27T01:34:00.730Z,11.90
2017-07-27T01:36:28.118Z,13.60
2017-07-27T01:38:55.522Z,11.33
2017-07-27T01:41:22.914Z,11.77
2017-07-27T01:43:50.318Z,10.23
2017-07-27T01:46:17.715Z,10.80
2017-07-27T01:48:45.122Z,10.63
2017-07-27T01:51:12.510Z,11.03
2017-07-27T01:53:39.934Z,10.57
2017-07-27T01:56:07.328Z,9.50
2017-07-27T01:58:34.741Z,10.70
2017-07-27T02:01:02.133Z,10.53
2017-07-27T02:03:29.523Z,10.30
2017-07-27T02:05:56.922Z,10.10
2017-07-27T02:08:24.314Z,9.20
2017-07-27T02:10:51.718Z,10.10
2017-07-27T02:13:19.119Z,9.37
2017-07-27T02:15:46.532Z,9.50
2017-07-27T02:18:13.930Z,9.87
2017-07-27T02:20:41.347Z,9.10
2017-07-27T02:23:08.736Z,9.47
2017-07-27T02:25:36.132Z,9.10
2017-07-27T02:28:03.524Z,9.93
2017-07-27T02:30:30.919Z,10.50
2017-07-27T02:32:58.308Z,8.47
2017-07-27T02:35:25.975Z,9.97
2017-07-27T02:37:53.359Z,10.03
2017-07-27T02:40:20.762Z,10.60
2017-07-27T02:42:48.154Z,10.40
2017-07-27T02:45:15.556Z,9.37
2017-07-27T02:47:42.942Z,9.40
2017-07-27T02:50:10.348Z,9.90
2017-07-27T02:52:37.726Z,8.47
2017-07-27T02:55:05.162Z,9.03
2017-07-27T02:57:32.778Z,8.60
2017-07-27T03:00:00.171Z,9.37
2017-07-27T03:02:27.559Z,9.87
2017-07-27T03:04:54.947Z,8.80
2017-07-27T03:07:22.334Z,9.40
2017-07-27T03:09:49.739Z,8.90
2017-07-27T03:12:17.129Z,8.70
2017-07-27T03:14:44.531Z,9.00
2017-07-27T03:17:11.917Z,9.43
2017-07-27T03:19:39.302Z,9.33
2017-07-27T03:22:06.698Z,10.33
2017-07-27T03:24:34.090Z,8.90
2017-07-27T03:27:01.490Z,9.07
2017-07-27T03:29:28.887Z,10.23
2017-07-27T03:31:56.295Z,9.40
2017-07-27T03:34:23.727Z,8.70
2017-07-27T03:36:51.118Z,8.30
2017-07-27T03:39:18.501Z,9.70
2017-07-27T03:41:45.908Z,10.27
2017-07-27T03:44:13.302Z,8.53
2017-07-27T03:46:40.699Z,10.17
2017-07-27T03:49:08.082Z,8.80
2017-07-27T03:51:35.478Z,10.37
2017-07-27T03:54:02.883Z,10.83
2017-07-27T03:56:30.279Z,10.50
2017-07-27T03:58:57.663Z,10.77
2017-07-27T04:01:25.070Z,11.40
2017-07-27T04:03:52.459Z,11.20
2017-07-27T04:06:20.134Z,10.20
2017-07-27T04:08:47.523Z,12.20
2017-07-27T04:11:14.927Z,11.40
2017-07-27T04:13:42.319Z,12.53
2017-07-27T04:16:09.718Z,13.00
2017-07-27T04:18:37.102Z,13.40
2017-07-27T04:21:04.507Z,11.20
2017-07-27T04:23:31.894Z,12.23
2017-07-27T04:25:59.290Z,11.53
2017-07-27T04:28:26.698Z,10.50
2017-07-27T04:30:54.119Z,10.70
2017-07-27T04:33:21.545Z,11.70
2017-07-27T04:35:48.934Z,11.83
2017-07-27T04:38:16.326Z,11.03
2017-07-27T04:40:43.722Z,11.60
2017-07-27T04:43:11.123Z,12.30
2017-07-27T04:45:38.511Z,12.37
2017-07-27T04:48:05.907Z,11.93
2017-07-27T04:50:33.303Z,10.93
2017-07-27T04:53:00.730Z,12.20
2017-07-27T04:55:28.118Z,12.53
2017-07-27T04:58:00.398Z,11.70
2017-07-27T05:00:27.830Z,12.77
2017-07-27T05:02:55.298Z,10.80
2017-07-27T05:05:22.727Z,12.07
2017-07-27T05:07:50.171Z,10.73
2017-07-27T05:10:17.559Z,12.40
2017-07-27T05:12:44.963Z,11.77
2017-07-27T05:15:12.351Z,12.60
2017-07-27T05:17:39.751Z,12.23
2017-07-27T05:22:57.610Z,13.93
2017-07-27T05:25:25.006Z,12.13
2017-07-27T05:27:52.399Z,13.30
2017-07-27T05:30:19.786Z,14.80
2017-07-27T05:32:47.325Z,13.07
2017-07-27T05:35:14.763Z,14.80
2017-07-27T05:37:42.164Z,14.80
2017-07-27T05:40:09.774Z,14.43
2017-07-27T05:42:37.158Z,15.40
2017-07-27T05:45:04.556Z,14.23
2017-07-27T05:47:31.958Z,15.77
2017-07-27T05:49:59.439Z,16.33
2017-07-27T05:52:26.928Z,16.93
2017-07-27T05:54:54.298Z,14.10
2017-07-27T05:57:21.703Z,19.57
2017-07-27T05:59:49.095Z,17.40
2017-07-27T06:02:16.502Z,17.40
2017-07-27T06:04:44.027Z,21.60
2017-07-27T06:07:11.730Z,17.87
2017-07-27T06:09:39.391Z,18.90
2017-07-27T06:12:06.851Z,16.83
2017-07-27T06:14:34.247Z,21.27
2017-07-27T06:17:01.644Z,18.83
2017-07-27T06:19:29.073Z,22.87
2017-07-27T06:21:56.471Z,18.80
2017-07-27T06:24:24.092Z,21.67
2017-07-27T06:26:51.572Z,19.00
2017-07-27T06:29:18.964Z,25.80
2017-07-27T06:31:46.350Z,25.03
2017-07-27T06:34:13.742Z,22.10
2017-07-27T06:36:41.132Z,23.17
2017-07-27T06:39:08.522Z,26.40
2017-07-27T06:41:35.906Z,25.43
2017-07-27T06:44:03.306Z,22.70
2017-07-27T06:46:29.986Z,27.23
2017-07-27T06:48:57.384Z,28.07
2017-07-27T06:51:24.766Z,26.70
2017-07-27T06:53:51.453Z,23.93
2017-07-27T06:56:19.119Z,27.10
2017-07-27T06:58:46.535Z,26.80
2017-07-27T07:01:13.922Z,24.63
2017-07-27T07:03:41.319Z,22.67
2017-07-27T07:06:08.715Z,24.33
2017-07-27T07:08:36.116Z,25.13
2017-07-27T07:11:03.502Z,21.10
2017-07-27T07:13:30.906Z,26.97
2017-07-27T07:15:58.295Z,29.90
2017-07-27T07:18:25.694Z,26.10
2017-07-27T07:20:53.090Z,26.27
2017-07-27T07:23:20.478Z,28.23
2017-07-27T07:25:47.900Z,22.23
2017-07-27T07:28:15.305Z,22.37
2017-07-27T07:30:42.704Z,25.37
2017-07-27T07:33:10.094Z,23.17
2017-07-27T07:35:37.482Z,21.60
2017-07-27T07:38:04.875Z,24.83
2017-07-27T07:40:32.274Z,23.10
2017-07-27T07:42:59.659Z,20.90
2017-07-27T07:45:27.063Z,21.37
2017-07-27T07:47:54.445Z,20.07
2017-07-27T07:50:21.859Z,24.10
2017-07-27T07:52:49.255Z,23.10
2017-07-27T07:55:16.654Z,19.10
2017-07-27T07:57:44.038Z,20.67
2017-07-27T08:00:11.663Z,19.80
2017-07-27T08:02:39.054Z,18.80
2017-07-27T08:05:06.454Z,17.57
2017-07-27T08:07:33.852Z,20.53
2017-07-27T08:10:13.131Z,18.53
2017-07-27T08:12:40.519Z,18.00
2017-07-27T08:15:07.910Z,19.10
2017-07-27T08:17:35.307Z,18.93
2017-07-27T08:20:02.698Z,16.73
2017-07-27T08:22:30.098Z,17.17
2017-07-27T08:24:57.495Z,14.73
2017-07-27T08:27:24.895Z,17.20
2017-07-27T08:29:52.303Z,16.00
2017-07-27T08:32:19.687Z,16.00
2017-07-27T08:34:47.090Z,13.73
2017-07-27T08:37:14.479Z,13.40
2017-07-27T08:39:41.899Z,13.13
2017-07-27T08:42:09.523Z,14.13
2017-07-27T08:44:36.936Z,11.43
2017-07-27T08:47:04.329Z,10.93
2017-07-27T08:49:31.710Z,10.73
2017-07-27T08:51:59.104Z,9.87
2017-07-27T08:54:26.491Z,10.13
2017-07-27T08:56:53.895Z,10.00
2017-07-27T08:59:21.283Z,8.97
2017-07-27T09:01:48.678Z,9.10
2017-07-27T09:04:16.058Z,6.03
2017-07-27T09:06:43.463Z,7.80
2017-07-27T09:09:10.834Z,7.67
2017-07-27T09:11:38.226Z,6.90
2017-07-27T09:14:05.616Z,8.00
2017-07-27T09:16:33.011Z,7.30
2017-07-27T09:19:00.400Z,6.80
2017-07-27T09:21:27.782Z,7.40
2017-07-27T09:23:55.163Z,6.30
2017-07-27T09:26:22.560Z,5.53
2017-07-27T09:28:49.965Z,5.50
2017-07-27T09:31:17.355Z,4.50
2017-07-27T09:33:44.743Z,5.07
2017-07-27T09:36:12.406Z,5.20
2017-07-27T09:38:39.795Z,5.13
2017-07-27T09:41:07.197Z,5.43
2017-07-27T09:43:34.578Z,4.77
2017-07-27T09:46:01.959Z,3.90
2017-07-27T09:48:29.374Z,5.10
2017-07-27T09:50:56.758Z,4.50
2017-07-27T09:53:24.149Z,4.40
2017-07-27T09:55:51.531Z,4.10
2017-07-27T09:58:18.927Z,4.43
2017-07-27T10:00:46.306Z,4.37
2017-07-27T10:03:13.707Z,4.77
2017-07-27T10:05:41.091Z,4.10
2017-07-27T10:08:08.515Z,3.67
2017-07-27T10:10:35.902Z,4.10
2017-07-27T10:13:03.326Z,4.10
2017-07-27T10:15:30.706Z,3.77
2017-07-27T10:17:58.351Z,5.00
2017-07-27T10:20:25.735Z,4.10
2017-07-27T10:22:53.188Z,4.30
2017-07-27T10:25:20.558Z,4.13
2017-07-27T10:27:47.951Z,4.07
2017-07-27T10:30:15.337Z,4.90
2017-07-27T10:32:42.726Z,3.87
2017-07-27T10:35:10.587Z,4.13
2017-07-27T10:37:37.970Z,3.90
2017-07-27T10:40:05.351Z,3.70
2017-07-27T10:42:32.742Z,3.30
2017-07-27T10:45:00.122Z,4.00
2017-07-27T10:47:27.517Z,3.80
2017-07-27T10:49:54.894Z,4.03
2017-07-27T10:52:22.283Z,3.20
2017-07-27T10:54:49.663Z,3.97
2017-07-27T10:57:17.054Z,3.20
2017-07-27T10:59:44.462Z,3.90
2017-07-27T11:02:11.847Z,3.53
2017-07-27T11:04:39.265Z,3.43
2017-07-27T11:07:06.639Z,3.63
2017-07-27T11:09:34.251Z,3.50
2017-07-27T11:12:01.661Z,3.00
2017-07-27T11:14:29.046Z,3.17
2017-07-27T11:16:56.431Z,3.30
2017-07-27T11:19:23.824Z,3.40
2017-07-27T11:24:33.051Z,3.97
2017-07-27T11:27:00.426Z,3.97
2017-07-27T11:29:27.822Z,3.57
2017-07-27T11:31:55.212Z,3.17
2017-07-27T11:34:22.607Z,3.40
2017-07-27T11:36:49.999Z,3.30
2017-07-27T11:39:17.382Z,3.60
2017-07-27T11:41:44.762Z,2.57
2017-07-27T11:44:12.150Z,2.90
2017-07-27T11:46:39.539Z,3.53
2017-07-27T11:49:06.984Z,3.33
2017-07-27T11:51:34.384Z,3.33
2017-07-27T11:54:01.998Z,3.20
2017-07-27T11:56:29.597Z,3.23
2017-07-27T11:58:56.995Z,3.40
2017-07-27T12:01:24.379Z,3.80
2017-07-27T12:03:51.770Z,3.73
2017-07-27T12:06:19.154Z,3.83
2017-07-27T12:08:46.551Z,3.30
2017-07-27T12:11:13.938Z,3.83
2017-07-27T12:13:41.326Z,3.93
2017-07-27T12:16:08.707Z,3.90
2017-07-27T12:18:36.111Z,4.40
2017-07-27T12:21:03.527Z,4.17
2017-07-27T12:23:30.919Z,3.73
2017-07-27T12:25:58.317Z,3.53
2017-07-27T12:28:25.691Z,4.10
2017-07-27T12:30:53.087Z,3.93
2017-07-27T12:33:20.475Z,4.70
2017-07-27T12:35:47.867Z,4.40
2017-07-27T12:38:15.254Z,4.47
2017-07-27T12:40:42.654Z,4.20
2017-07-27T12:43:10.030Z,3.73
2017-07-27T12:45:37.419Z,4.10
2017-07-27T12:48:04.811Z,4.47
2017-07-27T12:50:32.190Z,3.87
2017-07-27T12:52:59.583Z,4.40
2017-07-27T12:55:27.238Z,4.00
2017-07-27T12:57:54.647Z,3.87
2017-07-27T13:00:22.023Z,4.43
2017-07-27T13:02:49.410Z,4.50
2017-07-27T13:05:16.803Z,4.70
2017-07-27T13:07:44.187Z,3.43
2017-07-27T13:10:11.574Z,4.10
2017-07-27T13:12:38.967Z,4.97
2017-07-27T13:15:06.376Z,3.83
2017-07-27T13:17:33.760Z,3.40
2017-07-27T13:20:01.147Z,4.53
2017-07-27T13:22:28.526Z,3.87
2017-07-27T13:24:55.939Z,4.80
2017-07-27T13:27:23.318Z,4.20
2017-07-27T13:29:50.918Z,3.23
2017-07-27T13:32:18.303Z,3.93
2017-07-27T13:34:45.690Z,4.90
2017-07-27T13:37:13.084Z,4.40
2017-07-27T13:39:40.455Z,4.57
2017-07-27T13:42:07.842Z,4.50
2017-07-27T13:44:35.228Z,4.77
2017-07-27T13:47:02.621Z,5.23
2017-07-27T13:49:30.008Z,4.50
2017-07-27T13:51:57.408Z,5.93
2017-07-27T13:54:24.800Z,5.33
2017-07-27T13:56:52.220Z,4.70
2017-07-27T13:59:19.616Z,5.70
2017-07-27T14:01:47.009Z,5.10
2017-07-27T14:04:14.397Z,5.40
2017-07-27T14:06:41.789Z,4.60
2017-07-27T14:09:09.178Z,5.17
2017-07-27T14:11:36.575Z,5.17
2017-07-27T14:14:03.962Z,5.17
2017-07-27T14:16:31.359Z,5.07
2017-07-27T14:18:59.030Z,5.40
2017-07-27T14:21:26.418Z,4.60
2017-07-27T14:23:54.020Z,4.40
2017-07-27T14:26:21.407Z,4.63
2017-07-27T14:28:48.810Z,5.20
2017-07-27T14:31:16.292Z,4.20
2017-07-27T14:33:43.685Z,4.37
2017-07-27T14:36:11.068Z,5.57
2017-07-27T14:38:38.582Z,4.80
2017-07-27T14:41:05.967Z,5.30
2017-07-27T14:43:33.362Z,5.47
2017-07-27T14:46:00.747Z,5.17
2017-07-27T14:48:28.138Z,5.40
2017-07-27T14:50:55.536Z,5.10
2017-07-27T14:53:22.926Z,4.90
2017-07-27T14:55:50.310Z,5.13
2017-07-27T14:58:17.919Z,4.40
2017-07-27T15:00:45.306Z,4.20
2017-07-27T15:03:12.750Z,4.60
2017-07-27T15:05:40.128Z,4.83
2017-07-27T15:08:07.559Z,4.27
2017-07-27T15:10:34.935Z,4.07
2017-07-27T15:13:02.335Z,4.73
2017-07-27T15:15:29.721Z,4.60
2017-07-27T15:17:57.103Z,3.40
2017-07-27T15:20:24.499Z,3.57
2017-07-27T15:22:53.264Z,3.80
2017-07-27T15:25:20.838Z,3.57
2017-07-27T15:27:48.232Z,3.47
2017-07-27T15:30:15.610Z,3.53
2017-07-27T15:32:43.014Z,4.10
2017-07-27T15:35:10.400Z,3.67
2017-07-27T15:37:37.786Z,3.90
2017-07-27T15:40:05.184Z,3.93
2017-07-27T15:42:32.574Z,3.93
2017-07-27T15:44:59.962Z,3.57
2017-07-27T15:47:27.598Z,3.30
2017-07-27T15:49:54.982Z,3.47
2017-07-27T15:52:22.386Z,3.47
2017-07-27T15:54:49.819Z,3.13
2017-07-27T15:57:17.198Z,3.90
2017-07-27T15:59:44.701Z,3.40
2017-07-27T16:02:12.078Z,4.67
2017-07-27T16:04:39.471Z,3.83
2017-07-27T16:07:06.855Z,3.60
2017-07-27T16:12:24.891Z,3.93
2017-07-27T16:14:52.298Z,3.43
2017-07-27T16:17:19.680Z,3.17
2017-07-27T16:19:47.060Z,3.10
2017-07-27T16:22:14.446Z,3.93
2017-07-27T16:24:42.062Z,3.73
2017-07-27T16:27:09.464Z,3.13
2017-07-27T16:29:36.838Z,3.60
2017-07-27T16:34:54.625Z,4.10
2017-07-27T16:37:22.006Z,4.10
2017-07-27T16:39:51.295Z,3.50
2017-07-27T16:42:18.749Z,3.40
2017-07-27T16:44:46.138Z,3.20
2017-07-27T16:47:13.524Z,3.40
2017-07-27T16:49:40.910Z,3.30
2017-07-27T16:52:08.295Z,3.70
2017-07-27T16:54:35.682Z,3.07
2017-07-27T16:57:03.062Z,3.70
2017-07-27T16:59:30.452Z,3.93
2017-07-27T17:01:57.835Z,2.87
2017-07-27T17:04:25.222Z,2.77
2017-07-27T17:06:52.609Z,2.63
2017-07-27T17:11:53.790Z,2.57
2017-07-27T17:14:21.179Z,3.17
2017-07-27T17:16:48.562Z,3.10
2017-07-27T17:19:15.955Z,3.47
2017-07-27T17:21:43.336Z,2.70
2017-07-27T17:24:10.735Z,3.37
2017-07-27T17:26:38.123Z,3.60
2017-07-27T17:29:05.530Z,3.30
2017-07-27T17:31:32.914Z,2.43
2017-07-27T17:34:00.312Z,3.50
2017-07-27T17:36:27.694Z,3.03
2017-07-27T17:38:55.084Z,2.90
2017-07-27T17:41:22.471Z,3.40
2017-07-27T17:43:49.847Z,3.30
2017-07-27T17:46:17.230Z,2.97
2017-07-27T17:48:44.611Z,3.40
2017-07-27T17:51:12.055Z,2.83
2017-07-27T17:53:39.435Z,2.97
2017-07-27T17:56:06.818Z,2.77
2017-07-27T17:58:34.197Z,2.93
2017-07-27T18:01:01.590Z,2.83
2017-07-27T18:03:28.966Z,3.27
2017-07-27T18:05:56.360Z,2.80
2017-07-27T18:08:23.746Z,2.43
2017-07-27T18:10:51.130Z,3.27
2017-07-27T18:13:18.510Z,2.83
2017-07-27T18:15:45.898Z,2.93
2017-07-27T18:18:13.278Z,3.30
2017-07-27T18:20:40.665Z,2.80
2017-07-27T18:23:08.050Z,2.97
2017-07-27T18:25:35.434Z,2.60
2017-07-27T18:28:02.824Z,3.37
2017-07-27T18:30:30.211Z,3.23
2017-07-27T18:32:57.599Z,3.10
2017-07-27T18:35:24.991Z,3.07
2017-07-27T18:37:52.381Z,2.80
2017-07-27T18:40:19.774Z,3.73
2017-07-27T18:42:47.146Z,2.83
2017-07-27T18:45:14.550Z,3.37
2017-07-27T18:47:41.940Z,2.57
2017-07-27T18:50:09.326Z,3.53
2017-07-27T18:52:37.002Z,2.73
2017-07-27T18:55:04.413Z,3.13
2017-07-27T18:57:31.810Z,2.67
2017-07-27T18:59:59.190Z,2.90
2017-07-27T19:02:31.421Z,3.37
2017-07-27T19:04:58.801Z,3.00
2017-07-27T19:07:26.190Z,3.20
2017-07-27T19:09:53.564Z,3.27
2017-07-27T19:12:20.951Z,3.07
2017-07-27T19:14:48.334Z,3.47
2017-07-27T19:17:15.722Z,3.20
2017-07-27T19:19:43.114Z,3.40
2017-07-27T19:22:10.510Z,3.67
2017-07-27T19:24:37.886Z,3.23
2017-07-27T19:27:05.295Z,2.80
2017-07-27T19:29:32.706Z,3.73
2017-07-27T19:32:00.098Z,3.50
2017-07-27T19:34:27.699Z,4.23
2017-07-27T19:36:55.082Z,2.97
2017-07-27T19:39:22.489Z,3.20
2017-07-27T19:41:49.870Z,3.87
2017-07-27T19:44:17.251Z,3.90
2017-07-27T19:46:44.648Z,4.30
2017-07-27T19:49:12.034Z,3.80
2017-07-27T19:51:39.427Z,3.87
2017-07-27T19:54:06.832Z,4.03
2017-07-27T19:56:34.210Z,4.07
2017-07-27T19:59:01.854Z,4.63
2017-07-27T20:01:29.242Z,3.97
2017-07-27T20:03:56.942Z,3.40
2017-07-27T20:06:24.331Z,3.73
2017-07-27T20:08:51.727Z,3.10
2017-07-27T20:11:19.112Z,3.57
2017-07-27T20:13:46.504Z,3.70
2017-07-27T20:16:13.892Z,3.60
2017-07-27T20:21:15.082Z,4.70
2017-07-27T20:23:42.523Z,4.03
2017-07-27T20:26:09.988Z,4.63
2017-07-27T20:28:37.462Z,5.17
2017-07-27T20:31:05.143Z,4.20
2017-07-27T20:33:32.674Z,3.93
2017-07-27T20:36:00.110Z,5.23
2017-07-27T20:38:27.530Z,4.07
2017-07-27T20:40:54.928Z,5.30
2017-07-27T20:43:22.315Z,5.50
2017-07-27T20:45:49.694Z,5.07
2017-07-27T20:48:17.130Z,5.87
2017-07-27T20:50:44.509Z,5.50
2017-07-27T20:53:12.650Z,5.93
2017-07-27T20:55:41.117Z,6.20
2017-07-27T20:58:08.521Z,7.07
2017-07-27T21:00:35.912Z,6.10
2017-07-27T21:03:03.298Z,6.50
2017-07-27T21:05:30.678Z,6.20
2017-07-27T21:07:58.077Z,6.00
2017-07-27T21:10:25.459Z,4.87
2017-07-27T21:12:52.858Z,5.10
2017-07-27T21:15:20.247Z,4.20
2017-07-27T21:17:47.636Z,5.30
2017-07-27T21:20:15.022Z,4.60
2017-07-27T21:22:42.561Z,4.97
2017-07-27T21:25:09.985Z,4.53
2017-07-27T21:27:37.627Z,4.73
2017-07-27T21:30:05.025Z,5.87
2017-07-27T21:32:32.415Z,4.83
2017-07-27T21:34:59.807Z,4.57
2017-07-27T21:37:27.183Z,4.50
2017-07-27T21:39:54.594Z,4.50
2017-07-27T21:42:21.971Z,5.10
2017-07-27T21:44:49.359Z,4.73
2017-07-27T21:47:16.749Z,4.80
2017-07-27T21:49:44.135Z,5.27
2017-07-27T21:52:11.523Z,5.93
2017-07-27T21:54:39.133Z,5.40
2017-07-27T21:57:06.510Z,5.50
2017-07-27T21:59:33.934Z,5.07
2017-07-27T22:02:01.324Z,6.87
2017-07-27T22:04:28.714Z,5.37
2017-07-27T22:06:56.102Z,5.83
2017-07-27T22:09:23.526Z,5.23
2017-07-27T22:11:50.914Z,4.90
2017-07-27T22:14:18.524Z,5.43
2017-07-27T22:16:45.915Z,5.80
2017-07-27T22:19:13.306Z,4.80
2017-07-27T22:21:40.699Z,4.60
2017-07-27T22:24:08.083Z,4.63
2017-07-27T22:26:35.470Z,5.60
2017-07-27T22:29:02.872Z,4.70
2017-07-27T22:31:30.270Z,5.50
2017-07-27T22:33:57.654Z,5.80
2017-07-27T22:36:25.058Z,5.60
2017-07-27T22:38:52.443Z,5.80
2017-07-27T22:41:19.843Z,5.10
2017-07-27T22:43:47.231Z,5.83
2017-07-27T22:46:14.631Z,6.10
2017-07-27T22:48:42.018Z,5.37
2017-07-27T22:51:09.416Z,5.77
2017-07-27T22:53:36.851Z,6.60
2017-07-27T22:56:04.267Z,5.77
2017-07-27T22:58:31.669Z,5.83
2017-07-27T23:00:59.058Z,4.80
2017-07-27T23:03:26.450Z,5.87
2017-07-27T23:05:53.846Z,5.87
2017-07-27T23:08:21.244Z,5.17
2017-07-27T23:10:48.634Z,5.13
2017-07-27T23:13:16.031Z,5.70
2017-07-27T23:15:44.291Z,5.70
2017-07-27T23:18:11.682Z,6.40
2017-07-27T23:20:39.086Z,7.00
2017-07-27T23:23:06.488Z,5.23
2017-07-27T23:25:33.878Z,6.23
2017-07-27T23:28:01.277Z,6.97
2017-07-27T23:30:28.679Z,5.50
2017-07-27T23:32:56.063Z,6.70
2017-07-27T23:35:23.479Z,6.30
2017-07-27T23:37:50.872Z,6.60
2017-07-27T23:40:18.570Z,7.57
2017-07-27T23:42:45.950Z,7.77
2017-07-27T23:45:13.338Z,7.63
2017-07-27T23:47:40.742Z,7.13
2017-07-27T23:50:08.127Z,6.20
2017-07-27T23:52:35.531Z,6.50
2017-07-27T23:55:02.922Z,6.03
2017-07-27T23:57:30.327Z,6.73
2017-07-27T23:59:58.007Z,5.37
